createdAt,value
2022-09-24T00:01:38.576Z,23.42
2022-09-24T00:04:07.973Z,23.67
2022-09-24T00:06:41.583Z,24.58
2022-09-24T00:09:11.507Z,22.08
2022-09-24T00:11:39.227Z,22.80
2022-09-24T00:14:08.395Z,21.40
2022-09-24T00:16:35.862Z,21.80
2022-09-24T00:19:03.870Z,22.55
2022-09-24T00:21:35.849Z,21.65
2022-09-24T00:24:08.279Z,20.08
2022-09-24T00:26:53.254Z,20.52
2022-09-24T00:29:22.844Z,21.10
2022-09-24T00:31:51.187Z,19.75
2022-09-24T00:34:21.666Z,20.23
2022-09-24T00:36:48.671Z,18.67
2022-09-24T00:39:16.207Z,20.20
2022-09-24T00:41:48.893Z,20.15
2022-09-24T00:44:40.794Z,20.15
2022-09-24T00:47:27.127Z,19.73
2022-09-24T00:50:06.322Z,19.58
2022-09-24T00:52:38.275Z,20.90
2022-09-24T00:55:06.206Z,21.30
2022-09-24T00:57:34.176Z,19.80
2022-09-24T01:00:01.069Z,21.17
2022-09-24T01:02:30.100Z,20.63
2022-09-24T01:04:59.626Z,21.30
2022-09-24T01:07:28.609Z,22.08
2022-09-24T01:09:55.352Z,21.25
2022-09-24T01:12:28.332Z,21.73
2022-09-24T01:15:18.119Z,22.02
2022-09-24T01:18:06.772Z,21.77
2022-09-24T01:21:10.776Z,22.15
2022-09-24T01:24:01.202Z,21.27
2022-09-24T01:26:48.123Z,21.33
2022-09-24T01:29:32.440Z,21.92
2022-09-24T01:32:07.623Z,22.25
2022-09-24T01:34:49.297Z,21.42
2022-09-24T01:37:20.652Z,22.27
2022-09-24T01:39:50.395Z,23.67
2022-09-24T01:42:18.674Z,23.30
2022-09-24T01:44:46.804Z,23.08
2022-09-24T01:47:23.082Z,25.05
2022-09-24T01:49:53.689Z,24.98
2022-09-24T01:52:26.073Z,24.35
2022-09-24T01:54:59.021Z,24.75
2022-09-24T01:57:35.859Z,25.20
2022-09-24T02:00:13.603Z,24.90
2022-09-24T02:02:47.690Z,24.92
2022-09-24T02:05:31.510Z,26.58
2022-09-24T02:07:59.029Z,24.98
2022-09-24T02:10:29.481Z,26.58
2022-09-24T02:13:02.402Z,27.25
2022-09-24T02:15:33.859Z,28.50
2022-09-24T02:18:06.036Z,28.90
2022-09-24T02:20:39.003Z,33.08
2022-09-24T02:23:07.827Z,35.88
2022-09-24T02:25:44.239Z,37.83
2022-09-24T02:28:11.084Z,35.63
2022-09-24T02:30:49.941Z,35.40
2022-09-24T02:33:39.403Z,32.13
2022-09-24T02:36:07.375Z,30.50
2022-09-24T02:38:34.072Z,30.88
2022-09-24T02:41:01.218Z,29.40
2022-09-24T02:43:27.990Z,30.05
2022-09-24T02:45:57.265Z,28.30
2022-09-24T02:48:23.990Z,27.45
2022-09-24T02:50:51.037Z,27.05
2022-09-24T02:53:20.024Z,29.38
2022-09-24T02:55:49.053Z,28.98
2022-09-24T02:58:16.010Z,29.05
2022-09-24T03:00:43.857Z,29.90
2022-09-24T03:03:10.607Z,32.08
2022-09-24T03:05:39.668Z,30.75
2022-09-24T03:08:08.981Z,33.60
2022-09-24T03:10:35.847Z,32.90
2022-09-24T03:13:04.828Z,34.65
2022-09-24T03:15:31.626Z,33.28
2022-09-24T03:17:58.386Z,35.00
2022-09-24T03:20:28.157Z,35.65
2022-09-24T03:22:57.055Z,34.42
2022-09-24T03:25:26.137Z,37.25
2022-09-24T03:27:53.189Z,37.63
2022-09-24T03:30:38.415Z,38.15
2022-09-24T03:33:05.165Z,38.22
2022-09-24T03:35:31.983Z,38.33
2022-09-24T03:37:58.768Z,38.58
2022-09-24T03:40:25.666Z,39.72
2022-09-24T03:42:55.470Z,37.75
2022-09-24T03:45:22.194Z,35.22
2022-09-24T03:47:49.076Z,36.10
2022-09-24T03:50:16.273Z,36.78
2022-09-24T03:52:45.253Z,35.40
2022-09-24T03:55:12.107Z,35.28
2022-09-24T03:57:38.890Z,35.20
2022-09-24T04:00:06.022Z,36.40
2022-09-24T04:02:32.847Z,34.97
2022-09-24T04:04:59.600Z,34.67
2022-09-24T04:07:26.326Z,36.10
2022-09-24T04:09:53.112Z,35.50
2022-09-24T04:12:20.599Z,35.50
2022-09-24T04:14:47.399Z,33.70
2022-09-24T04:17:16.283Z,34.72
2022-09-24T04:19:43.942Z,34.67
2022-09-24T04:22:12.850Z,35.10
2022-09-24T04:24:39.515Z,34.03
2022-09-24T04:27:06.258Z,33.88
2022-09-24T04:29:32.934Z,35.78
2022-09-24T04:31:59.645Z,36.72
2022-09-24T04:34:26.299Z,35.42
2022-09-24T04:36:53.067Z,34.03
2022-09-24T04:39:22.432Z,36.53
2022-09-24T04:41:49.098Z,34.65
2022-09-24T04:44:15.923Z,35.25
2022-09-24T04:46:47.422Z,33.75
2022-09-24T04:51:43.274Z,30.58
2022-09-24T04:54:10.334Z,30.80
2022-09-24T04:56:37.297Z,31.83
2022-09-24T04:59:06.450Z,29.83
2022-09-24T05:01:33.125Z,28.77
2022-09-24T05:04:02.364Z,27.50
2022-09-24T05:06:29.549Z,26.67
2022-09-24T05:08:56.242Z,25.60
2022-09-24T05:11:22.945Z,21.98
2022-09-24T05:13:49.627Z,18.38
2022-09-24T05:16:16.533Z,15.50
2022-09-24T05:18:45.510Z,12.43
2022-09-24T05:21:14.399Z,12.75
2022-09-24T05:23:43.246Z,12.63
2022-09-24T05:26:28.457Z,12.85
2022-09-24T05:28:55.231Z,11.38
2022-09-24T05:31:21.979Z,10.93
2022-09-24T05:33:49.338Z,9.45
2022-09-24T05:36:18.375Z,9.18
2022-09-24T05:38:45.554Z,8.50
2022-09-24T05:41:12.259Z,8.60
2022-09-24T05:43:39.005Z,8.35
2022-09-24T05:46:06.380Z,8.43
2022-09-24T05:48:33.355Z,7.53
2022-09-24T05:51:06.365Z,6.32
2022-09-24T05:53:33.904Z,5.45
2022-09-24T05:56:02.112Z,4.88
2022-09-24T05:58:31.512Z,5.25
2022-09-24T06:01:01.288Z,4.53
2022-09-24T06:03:31.803Z,4.82
2022-09-24T06:06:02.316Z,4.13
2022-09-24T06:08:31.301Z,4.22
2022-09-24T06:11:04.334Z,4.93
2022-09-24T06:13:34.977Z,4.57
2022-09-24T06:16:10.424Z,3.88
2022-09-24T06:18:41.571Z,4.22
2022-09-24T06:21:13.825Z,4.25
2022-09-24T06:23:41.298Z,4.10
2022-09-24T06:26:10.753Z,4.30
2022-09-24T06:28:38.482Z,3.40
2022-09-24T06:31:06.062Z,3.50
2022-09-24T06:33:32.987Z,4.00
2022-09-24T06:36:01.338Z,3.63
2022-09-24T06:38:28.646Z,2.60
2022-09-24T06:41:00.456Z,3.22
2022-09-24T06:43:27.670Z,3.20
2022-09-24T06:45:58.776Z,3.05
2022-09-24T06:48:27.501Z,2.53
2022-09-24T06:50:56.428Z,2.72
2022-09-24T06:53:23.659Z,3.20
2022-09-24T06:55:50.793Z,3.00
2022-09-24T06:58:21.202Z,2.70
2022-09-24T07:01:00.305Z,3.13
2022-09-24T07:03:28.744Z,2.70
2022-09-24T07:05:56.463Z,3.17
2022-09-24T07:08:23.811Z,3.20
2022-09-24T07:10:51.765Z,3.08
2022-09-24T07:13:21.177Z,3.00
2022-09-24T07:15:50.575Z,2.50
2022-09-24T07:18:17.955Z,3.70
2022-09-24T07:20:47.856Z,2.88
2022-09-24T07:23:16.737Z,2.75
2022-09-24T07:25:43.456Z,2.70
2022-09-24T07:28:18.692Z,2.83
2022-09-24T07:30:45.382Z,2.83
2022-09-24T07:33:12.119Z,3.22
2022-09-24T07:35:39.891Z,2.50
2022-09-24T07:38:11.978Z,2.20
2022-09-24T07:40:39.063Z,3.08
2022-09-24T07:43:07.545Z,2.70
2022-09-24T07:45:36.510Z,2.88
2022-09-24T07:48:05.318Z,2.75
2022-09-24T07:50:34.937Z,2.67
2022-09-24T07:53:01.856Z,2.90
2022-09-24T07:55:30.862Z,2.60
2022-09-24T07:57:57.801Z,2.65
2022-09-24T08:00:24.937Z,2.55
2022-09-24T08:02:56.428Z,2.95
2022-09-24T08:05:23.422Z,2.92
2022-09-24T08:07:57.757Z,2.72
2022-09-24T08:10:28.301Z,2.25
2022-09-24T08:12:57.256Z,2.60
2022-09-24T08:15:24.260Z,1.90
2022-09-24T08:17:53.192Z,2.30
2022-09-24T08:20:21.008Z,2.17
2022-09-24T08:22:53.138Z,2.72
2022-09-24T08:25:19.963Z,2.55
2022-09-24T08:27:49.135Z,2.70
2022-09-24T08:30:18.632Z,2.50
2022-09-24T08:32:52.588Z,2.42
2022-09-24T08:35:19.484Z,3.08
2022-09-24T08:37:48.356Z,2.67
2022-09-24T08:40:24.659Z,3.17
2022-09-24T08:43:13.400Z,3.00
2022-09-24T08:46:12.903Z,2.60
2022-09-24T08:48:45.907Z,3.40
2022-09-24T08:51:17.850Z,2.53
2022-09-24T08:54:14.687Z,3.15
2022-09-24T08:56:45.407Z,3.17
2022-09-24T08:59:30.405Z,3.43
2022-09-24T09:02:20.599Z,2.63
2022-09-24T09:05:05.162Z,2.65
2022-09-24T09:07:44.810Z,2.30
2022-09-24T09:10:16.523Z,2.50
2022-09-24T09:13:08.663Z,2.40
2022-09-24T09:15:43.904Z,2.88
2022-09-24T09:18:23.432Z,2.47
2022-09-24T09:21:05.814Z,2.33
2022-09-24T09:23:41.242Z,2.58
2022-09-24T09:26:12.299Z,2.10
2022-09-24T09:28:39.340Z,2.85
2022-09-24T09:31:25.009Z,2.40
2022-09-24T09:33:54.303Z,2.47
2022-09-24T09:36:35.856Z,2.55
2022-09-24T09:39:18.448Z,2.50
2022-09-24T09:42:23.615Z,2.63
2022-09-24T09:44:52.609Z,2.00
2022-09-24T09:47:54.459Z,2.22
2022-09-24T09:50:42.328Z,2.33
2022-09-24T09:53:21.096Z,1.98
2022-09-24T09:55:56.691Z,1.90
2022-09-24T09:58:29.065Z,2.17
2022-09-24T10:01:20.773Z,2.00
2022-09-24T10:03:52.459Z,1.85
2022-09-24T10:06:32.103Z,1.83
2022-09-24T10:09:20.950Z,2.15
2022-09-24T10:11:50.291Z,2.30
2022-09-24T10:14:21.701Z,2.33
2022-09-24T10:16:53.888Z,2.28
2022-09-24T10:19:23.344Z,2.20
2022-09-24T10:21:51.892Z,1.40
2022-09-24T10:24:22.668Z,1.73
2022-09-24T10:26:50.279Z,2.23
2022-09-24T10:29:51.026Z,1.98
2022-09-24T10:32:26.422Z,1.77
2022-09-24T10:35:00.506Z,1.90
2022-09-24T10:37:29.001Z,2.10
2022-09-24T10:40:25.617Z,2.13
2022-09-24T10:43:03.492Z,1.70
2022-09-24T10:45:59.041Z,1.83
2022-09-24T10:48:38.224Z,2.10
2022-09-24T10:51:11.819Z,1.73
2022-09-24T10:54:04.464Z,1.75
2022-09-24T10:56:34.036Z,1.55
2022-09-24T10:59:31.237Z,1.80
2022-09-24T11:02:04.083Z,1.63
2022-09-24T11:04:50.580Z,1.77
2022-09-24T11:07:52.537Z,1.40
2022-09-24T11:10:52.752Z,1.23
2022-09-24T11:13:25.265Z,1.60
2022-09-24T11:16:25.911Z,1.70
2022-09-24T11:19:03.873Z,1.30
2022-09-24T11:21:53.483Z,1.48
2022-09-24T11:24:45.941Z,1.30
2022-09-24T11:27:20.965Z,1.73
2022-09-24T11:30:19.720Z,1.70
2022-09-24T11:33:05.318Z,1.38
2022-09-24T11:35:32.273Z,2.05
2022-09-24T11:38:14.950Z,1.38
2022-09-24T11:41:17.020Z,1.73
2022-09-24T11:46:42.821Z,1.63
2022-09-24T11:49:53.166Z,2.05
2022-09-24T11:52:39.599Z,1.70
2022-09-24T11:55:20.042Z,1.80
2022-09-24T11:58:06.403Z,2.05
2022-09-24T12:00:40.567Z,1.67
2022-09-24T12:03:22.157Z,1.80
2022-09-24T12:05:59.670Z,1.70
2022-09-24T12:08:42.211Z,1.83
2022-09-24T12:11:16.475Z,2.45
2022-09-24T12:13:52.267Z,2.13
2022-09-24T12:16:24.231Z,2.53
2022-09-24T12:19:06.134Z,2.40
2022-09-24T12:21:36.717Z,2.35
2022-09-24T12:24:10.559Z,2.67
2022-09-24T12:26:41.935Z,1.92
2022-09-24T12:29:49.232Z,2.15
2022-09-24T12:32:58.842Z,2.40
2022-09-24T12:35:28.825Z,2.22
2022-09-24T12:38:03.311Z,2.40
2022-09-24T12:40:54.950Z,1.70
2022-09-24T12:43:46.274Z,2.53
2022-09-24T12:46:24.289Z,1.98
2022-09-24T12:48:54.628Z,2.00
2022-09-24T12:51:24.978Z,1.90
2022-09-24T12:53:59.316Z,2.20
2022-09-24T12:56:29.773Z,1.98
2022-09-24T12:58:57.630Z,2.00
2022-09-24T13:01:26.754Z,1.80
2022-09-24T13:04:26.363Z,1.90
2022-09-24T13:06:53.413Z,1.70
2022-09-24T13:09:25.846Z,1.88
2022-09-24T13:12:24.365Z,2.35
2022-09-24T13:15:14.090Z,1.52
2022-09-24T13:17:43.600Z,2.22
2022-09-24T13:20:25.960Z,1.73
2022-09-24T13:23:12.480Z,1.60
2022-09-24T13:25:39.582Z,1.45
2022-09-24T13:28:38.337Z,1.38
2022-09-24T13:31:25.354Z,1.77
2022-09-24T13:33:58.898Z,1.40
2022-09-24T13:37:01.374Z,1.63
2022-09-24T13:39:47.489Z,1.58
2022-09-24T13:42:33.137Z,1.60
2022-09-24T13:45:08.792Z,1.15
2022-09-24T13:47:39.361Z,1.60
2022-09-24T13:50:29.266Z,1.70
2022-09-24T13:53:07.405Z,1.52
2022-09-24T13:55:44.521Z,1.67
2022-09-24T13:58:29.560Z,1.70
2022-09-24T14:00:58.437Z,1.50
2022-09-24T14:03:33.497Z,1.38
2022-09-24T14:06:13.320Z,1.10
2022-09-24T14:08:45.988Z,1.48
2022-09-24T14:11:27.476Z,1.13
2022-09-24T14:13:56.377Z,1.20
2022-09-24T14:16:27.187Z,1.17
2022-09-24T14:19:05.531Z,1.38
2022-09-24T14:21:55.103Z,1.50
2022-09-24T14:24:24.846Z,1.10
2022-09-24T14:27:09.881Z,1.15
2022-09-24T14:30:00.283Z,1.23
2022-09-24T14:32:39.911Z,1.75
2022-09-24T14:35:20.407Z,1.60
2022-09-24T14:38:01.309Z,1.30
2022-09-24T14:40:28.925Z,1.40
2022-09-24T14:43:02.180Z,1.30
2022-09-24T14:45:40.522Z,1.00
2022-09-24T14:48:18.321Z,1.48
2022-09-24T14:50:48.473Z,1.50
2022-09-24T14:53:43.629Z,1.00
2022-09-24T14:56:21.620Z,1.05
2022-09-24T14:58:51.635Z,1.02
2022-09-24T15:01:21.655Z,0.98
2022-09-24T15:03:54.907Z,1.23
2022-09-24T15:06:28.041Z,0.85
2022-09-24T15:09:30.098Z,1.05
2022-09-24T15:12:17.755Z,1.13
2022-09-24T15:14:56.007Z,1.13
2022-09-24T15:17:27.058Z,1.15
2022-09-24T15:19:58.084Z,1.20
2022-09-24T15:22:27.000Z,1.40
2022-09-24T15:25:00.271Z,1.27
2022-09-24T15:27:31.266Z,1.45
2022-09-24T15:29:59.954Z,1.30
2022-09-24T15:32:28.797Z,1.40
2022-09-24T15:34:56.632Z,1.42
2022-09-24T15:37:27.316Z,1.38
2022-09-24T15:39:58.658Z,1.20
2022-09-24T15:42:26.839Z,1.20
2022-09-24T15:44:54.704Z,1.55
2022-09-24T15:47:21.482Z,1.48
2022-09-24T15:49:48.215Z,1.60
2022-09-24T15:52:14.880Z,1.83
2022-09-24T15:54:41.949Z,1.70
2022-09-24T15:57:15.055Z,1.42
2022-09-24T15:59:47.024Z,1.67
2022-09-24T16:02:24.686Z,1.70
2022-09-24T16:04:53.727Z,1.80
2022-09-24T16:07:20.592Z,2.38
2022-09-24T16:09:49.807Z,1.90
2022-09-24T16:12:17.487Z,4.40
2022-09-24T16:14:44.405Z,2.92
2022-09-24T16:17:13.457Z,1.52
2022-09-24T16:19:40.209Z,1.88
2022-09-24T16:22:06.981Z,1.45
2022-09-24T16:24:34.823Z,1.40
2022-09-24T16:27:04.122Z,1.20
2022-09-24T16:29:31.023Z,1.50
2022-09-24T16:31:57.751Z,1.33
2022-09-24T16:34:27.502Z,1.38
2022-09-24T16:36:57.073Z,1.80
2022-09-24T16:39:23.772Z,1.30
2022-09-24T16:41:54.242Z,1.55
2022-09-24T16:44:20.997Z,1.30
2022-09-24T16:46:55.533Z,1.92
2022-09-24T16:49:23.826Z,1.63
2022-09-24T16:51:50.952Z,1.55
2022-09-24T16:54:20.081Z,1.23
2022-09-24T16:56:52.438Z,1.30
2022-09-24T16:59:19.349Z,1.30
2022-09-24T17:01:48.319Z,1.10
2022-09-24T17:04:15.395Z,1.23
2022-09-24T17:06:45.877Z,1.30
2022-09-24T17:09:31.306Z,1.10
2022-09-24T17:12:00.360Z,1.33
2022-09-24T17:14:29.341Z,1.30
2022-09-24T17:16:56.487Z,1.02
2022-09-24T17:19:25.729Z,1.63
2022-09-24T17:21:54.774Z,1.73
2022-09-24T17:24:24.497Z,1.10
2022-09-24T17:26:51.470Z,1.58
2022-09-24T17:29:22.575Z,1.35
2022-09-24T17:31:49.743Z,1.70
2022-09-24T17:34:19.162Z,1.27
2022-09-24T17:36:46.215Z,1.20
2022-09-24T17:39:13.595Z,1.33
2022-09-24T17:41:40.778Z,1.20
2022-09-24T17:44:12.418Z,1.42
2022-09-24T17:49:08.186Z,1.73
2022-09-24T17:51:36.658Z,1.50
2022-09-24T17:54:06.813Z,1.77
2022-09-24T17:56:39.352Z,1.50
2022-09-24T17:59:11.386Z,1.50
2022-09-24T18:01:39.792Z,1.50
2022-09-24T18:04:10.139Z,1.40
2022-09-24T18:06:39.357Z,1.58
2022-09-24T18:09:06.625Z,1.15
2022-09-24T18:11:39.794Z,1.48
2022-09-24T18:14:12.039Z,1.60
2022-09-24T18:16:38.908Z,1.75
2022-09-24T18:19:09.090Z,1.70
2022-09-24T18:21:35.875Z,1.50
2022-09-24T18:24:03.076Z,1.75
2022-09-24T18:26:34.993Z,1.83
2022-09-24T18:29:10.280Z,1.38
2022-09-24T18:31:38.230Z,2.08
2022-09-24T18:34:07.665Z,1.60
2022-09-24T18:36:37.470Z,1.67
2022-09-24T18:39:06.579Z,1.85
2022-09-24T18:41:37.319Z,1.98
2022-09-24T18:44:07.266Z,1.83
2022-09-24T18:46:35.367Z,1.83
2022-09-24T18:49:02.667Z,1.75
2022-09-24T18:51:35.962Z,1.50
2022-09-24T18:54:24.563Z,1.90
2022-09-24T18:56:58.552Z,1.70
2022-09-24T18:59:26.168Z,2.10
2022-09-24T19:01:52.973Z,2.10
2022-09-24T19:04:19.901Z,1.92
2022-09-24T19:06:51.916Z,1.95
2022-09-24T19:09:20.049Z,2.28
2022-09-24T19:11:48.712Z,2.20
2022-09-24T19:14:18.416Z,2.17
2022-09-24T19:16:48.166Z,2.15
2022-09-24T19:19:16.118Z,1.80
2022-09-24T19:21:45.035Z,1.80
2022-09-24T19:24:11.909Z,1.67
2022-09-24T19:26:40.876Z,1.88
2022-09-24T19:29:07.836Z,2.08
2022-09-24T19:31:40.421Z,2.10
2022-09-24T19:34:10.155Z,2.58
2022-09-24T19:36:44.913Z,2.70
2022-09-24T19:39:14.380Z,3.00
2022-09-24T19:41:41.611Z,2.80
2022-09-24T19:44:09.337Z,3.25
2022-09-24T19:46:38.365Z,2.90
2022-09-24T19:49:06.114Z,3.15
2022-09-24T19:51:34.616Z,2.80
2022-09-24T19:54:03.674Z,3.20
2022-09-24T19:56:31.836Z,2.63
2022-09-24T19:59:00.161Z,2.58
2022-09-24T20:01:30.816Z,2.78
2022-09-24T20:04:01.946Z,2.70
2022-09-24T20:06:31.142Z,2.78
2022-09-24T20:08:57.881Z,2.75
2022-09-24T20:11:27.518Z,2.97
2022-09-24T20:13:56.428Z,2.70
2022-09-24T20:16:26.727Z,2.60
2022-09-24T20:18:57.430Z,2.65
2022-09-24T20:21:27.688Z,2.60
2022-09-24T20:23:56.616Z,2.58
2022-09-24T20:26:43.874Z,2.80
2022-09-24T20:29:13.634Z,2.38
2022-09-24T20:31:53.857Z,2.60
2022-09-24T20:34:23.947Z,2.40
2022-09-24T20:36:51.465Z,2.33
2022-09-24T20:39:18.707Z,2.80
2022-09-24T20:41:47.603Z,2.88
2022-09-24T20:44:14.315Z,2.97
2022-09-24T20:46:41.261Z,2.88
2022-09-24T20:49:08.065Z,2.90
2022-09-24T20:51:38.809Z,2.15
2022-09-24T20:54:05.728Z,2.58
2022-09-24T20:56:32.605Z,3.05
2022-09-24T20:59:00.925Z,2.70
2022-09-24T21:01:29.899Z,2.75
2022-09-24T21:03:58.310Z,2.78
2022-09-24T21:06:28.095Z,2.50
2022-09-24T21:08:54.864Z,2.85
2022-09-24T21:11:26.066Z,15.60
2022-09-24T21:13:55.230Z,22.73
2022-09-24T21:16:25.126Z,7.85
2022-09-24T21:18:56.264Z,5.18
2022-09-24T21:21:28.986Z,4.00
2022-09-24T21:23:58.264Z,3.42
2022-09-24T21:26:30.113Z,4.18
2022-09-24T21:29:03.965Z,3.60
2022-09-24T21:31:33.048Z,3.33
2022-09-24T21:34:00.276Z,3.05
2022-09-24T21:36:29.376Z,3.05
2022-09-24T21:39:08.489Z,2.60
2022-09-24T21:41:39.826Z,2.83
2022-09-24T21:44:08.356Z,2.42
2022-09-24T21:46:35.678Z,2.50
2022-09-24T21:49:02.835Z,2.40
2022-09-24T21:51:32.276Z,3.10
2022-09-24T21:54:04.590Z,2.47
2022-09-24T21:56:32.895Z,2.40
2022-09-24T21:58:59.976Z,2.42
2022-09-24T22:01:30.470Z,2.25
2022-09-24T22:04:07.374Z,2.50
2022-09-24T22:06:39.646Z,1.90
2022-09-24T22:09:09.064Z,2.42
2022-09-24T22:11:37.091Z,2.28
2022-09-24T22:14:07.197Z,2.30
2022-09-24T22:16:36.277Z,2.70
2022-09-24T22:19:04.547Z,2.47
2022-09-24T22:21:32.087Z,2.30
2022-09-24T22:23:58.961Z,2.67
2022-09-24T22:26:29.797Z,2.70
2022-09-24T22:28:57.842Z,2.50
2022-09-24T22:31:24.885Z,2.22
2022-09-24T22:34:10.916Z,2.50
2022-09-24T22:36:38.075Z,2.33
2022-09-24T22:39:08.568Z,2.90
2022-09-24T22:41:37.837Z,2.30
2022-09-24T22:44:04.857Z,2.05
2022-09-24T22:46:33.213Z,1.92
2022-09-24T22:49:00.123Z,2.20
2022-09-24T22:51:27.542Z,2.30
2022-09-24T22:53:55.623Z,2.22
2022-09-24T22:56:25.214Z,1.80
2022-09-24T22:58:57.457Z,2.50
2022-09-24T23:01:30.294Z,2.28
2022-09-24T23:04:00.269Z,2.03
2022-09-24T23:06:27.409Z,2.35
2022-09-24T23:08:55.592Z,2.10
2022-09-24T23:11:29.051Z,2.00
2022-09-24T23:13:58.852Z,2.30
2022-09-24T23:16:28.586Z,2.47
2022-09-24T23:18:58.084Z,2.17
2022-09-24T23:21:27.051Z,2.08
2022-09-24T23:23:55.417Z,2.38
2022-09-24T23:26:23.662Z,2.30
2022-09-24T23:28:52.839Z,2.10
2022-09-24T23:31:22.427Z,2.05
2022-09-24T23:33:51.865Z,2.20
2022-09-24T23:36:18.764Z,2.35
2022-09-24T23:38:45.662Z,2.03
2022-09-24T23:41:13.541Z,2.63
2022-09-24T23:43:41.576Z,2.28
2022-09-24T23:46:09.595Z,2.58
2022-09-24T23:48:36.856Z,1.92
2022-09-24T23:51:04.775Z,1.90
2022-09-24T23:53:34.168Z,2.17
2022-09-24T23:56:02.423Z,2.20
2022-09-24T23:58:29.666Z,2.33
